Time;durP1;ratioP1;P1;durP2;ratioP2;P2;SDS_P1;SDS_P2;PMS_P1;PMS_P2;Temp;Humidity;BMP_temperature;BMP_pressure;BME280_temperature;BME280_humidity;BME280_pressure;Samples;Min_cycle;Max_cycle;Signal;HPM_P1;HPM_P2
2022/08/16 00:00:10;;;;;;;7.30;5.23;;;22.10;1.00;;;;;;5069487;28;20467;-82
2022/08/16 00:02:36;;;;;;;6.80;5.67;;;22.10;1.00;;;;;;5079596;28;20436;-81
2022/08/16 00:05:05;;;;;;;5.27;4.77;;;22.10;1.00;;;;;;5080425;28;21008;-82
2022/08/16 00:07:31;;;;;;;6.77;5.43;;;22.00;1.00;;;;;;5078475;28;20257;-82
2022/08/16 00:09:58;;;;;;;8.00;5.27;;;22.00;1.00;;;;;;5077020;28;20487;-82
2022/08/16 00:12:25;;;;;;;6.90;5.10;;;21.90;1.00;;;;;;5075216;28;20228;-82
2022/08/16 00:14:50;;;;;;;6.83;4.60;;;21.90;1.00;;;;;;5078175;28;20472;-82
2022/08/16 00:17:16;;;;;;;6.67;5.60;;;21.80;1.00;;;;;;5078285;28;20439;-82
2022/08/16 00:19:41;;;;;;;5.10;4.70;;;21.80;1.00;;;;;;5075741;28;20307;-81
2022/08/16 00:22:07;;;;;;;5.00;4.50;;;21.80;1.00;;;;;;5064108;28;20186;-81
2022/08/16 00:24:33;;;;;;;5.63;4.17;;;21.80;1.00;;;;;;5076975;28;20201;-82
2022/08/16 00:27:00;;;;;;;7.93;4.90;;;21.70;1.00;;;;;;5079593;28;20184;-82
2022/08/16 00:29:26;;;;;;;5.50;5.00;;;21.70;1.00;;;;;;5082483;28;20264;-81
2022/08/16 00:31:52;;;;;;;5.07;4.10;;;21.60;1.00;;;;;;5081263;28;20470;-82
2022/08/16 00:34:19;;;;;;;5.13;4.63;;;21.70;1.00;;;;;;5081165;28;20221;-82
2022/08/16 00:36:45;;;;;;;5.80;4.30;;;21.70;1.00;;;;;;5066023;28;20185;-82
2022/08/16 00:39:12;;;;;;;7.10;4.80;;;21.70;1.00;;;;;;5075932;28;20432;-80
2022/08/16 00:41:38;;;;;;;9.30;4.83;;;21.80;1.00;;;;;;5070639;28;20206;-79
2022/08/16 00:44:09;;;;;;;4.90;4.40;;;21.90;1.00;;;;;;5074791;28;20443;-80
2022/08/16 00:46:50;;;;;;;6.00;5.03;;;21.90;1.00;;;;;;5067900;28;20169;-79
2022/08/16 00:49:16;;;;;;;5.13;4.63;;;22.00;1.00;;;;;;5071731;28;20869;-80
2022/08/16 00:51:42;;;;;;;4.20;3.70;;;22.00;1.00;;;;;;5053821;28;21679;-79
2022/08/16 00:54:08;;;;;;;6.10;5.00;;;22.10;1.00;;;;;;5093704;23;20492;-84
2022/08/16 00:56:37;;;;;;;5.30;3.80;;;22.10;1.00;;;;;;5056395;28;20181;-83
2022/08/16 00:59:06;;;;;;;6.23;5.60;;;22.10;1.00;;;;;;5052817;28;20432;-83
2022/08/16 01:01:32;;;;;;;7.37;4.47;;;22.10;1.00;;;;;;5053583;28;20422;-85
2022/08/16 01:03:59;;;;;;;5.30;4.37;;;22.00;1.00;;;;;;5079090;28;20440;-83
2022/08/16 01:06:25;;;;;;;7.90;4.60;;;22.00;1.00;;;;;;5088936;28;20175;-85
2022/08/16 01:08:56;;;;;;;6.27;4.60;;;21.90;1.00;;;;;;5069429;28;20435;-82
2022/08/16 01:11:24;;;;;;;7.70;5.00;;;21.80;1.00;;;;;;5066889;28;20482;-83
2022/08/16 01:13:52;;;;;;;5.13;4.63;;;21.60;1.00;;;;;;5072912;28;20469;-83
2022/08/16 01:16:25;;;;;;;6.33;4.67;;;21.60;1.00;;;;;;5076802;28;20473;-83
2022/08/16 01:18:58;;;;;;;5.60;4.50;;;21.50;1.00;;;;;;5090777;28;20967;-83
2022/08/16 01:21:33;;;;;;;5.37;4.87;;;21.50;1.00;;;;;;5092140;28;20441;-85
2022/08/16 01:24:32;;;;;;;5.93;4.97;;;21.40;1.00;;;;;;5085855;28;20466;-83
2022/08/16 01:27:08;;;;;;;5.13;4.23;;;21.30;1.00;;;;;;5062629;28;21063;-83
2022/08/16 01:29:57;;;;;;;6.77;5.00;;;21.30;1.00;;;;;;5089598;28;20935;-83
2022/08/16 01:32:23;;;;;;;5.90;5.20;;;21.20;1.00;;;;;;5074900;28;20465;-84
2022/08/16 01:34:49;;;;;;;5.50;5.00;;;21.10;1.00;;;;;;5070970;28;20487;-85
2022/08/16 01:37:14;;;;;;;6.80;5.37;;;21.10;1.00;;;;;;5073838;28;20259;-84
2022/08/16 01:39:41;;;;;;;7.80;5.43;;;21.10;1.00;;;;;;5090277;28;20173;-83
2022/08/16 01:42:08;;;;;;;7.97;5.17;;;21.00;1.00;;;;;;5076934;28;20212;-83
2022/08/16 01:44:35;;;;;;;5.60;5.10;;;21.00;1.00;;;;;;5069841;28;20530;-83
2022/08/16 01:47:02;;;;;;;6.00;5.40;;;21.00;1.00;;;;;;5071628;28;20460;-85
2022/08/16 01:49:32;;;;;;;9.50;5.07;;;21.00;1.00;;;;;;5072557;28;20958;-84
2022/08/16 01:52:05;;;;;;;6.20;5.60;;;21.00;1.00;;;;;;5084018;28;20556;-83
2022/08/16 01:54:31;;;;;;;5.83;5.33;;;20.90;9.30;;;;;;5069983;28;20470;-84
2022/08/16 01:56:57;;;;;;;6.07;5.47;;;20.90;19.70;;;;;;5069890;28;20427;-83
2022/08/16 01:59:23;;;;;;;6.07;5.50;;;20.90;38.40;;;;;;5069781;28;20438;-83
2022/08/16 02:01:50;;;;;;;5.70;5.20;;;20.80;59.10;;;;;;5096428;28;20942;-83
2022/08/16 02:04:18;;;;;;;5.70;5.20;;;20.80;99.90;;;;;;5071572;28;20256;-82
2022/08/16 02:06:43;;;;;;;7.57;5.70;;;20.70;99.90;;;;;;5091853;28;20434;-84
2022/08/16 02:09:11;;;;;;;8.40;5.73;;;20.70;99.90;;;;;;5095251;28;20528;-83
2022/08/16 02:11:37;;;;;;;7.80;5.40;;;20.70;99.90;;;;;;5091739;28;20184;-83
2022/08/16 02:14:04;;;;;;;4.60;4.20;;;20.70;99.90;;;;;;5085944;28;20475;-84
2022/08/16 02:16:29;;;;;;;8.20;6.00;;;20.70;99.90;;;;;;5087333;28;20444;-85
2022/08/16 02:18:55;;;;;;;6.40;5.90;;;20.70;99.90;;;;;;5084200;28;20516;-84
2022/08/16 02:21:21;;;;;;;6.63;5.43;;;20.60;99.90;;;;;;5062805;28;20172;-82
2022/08/16 02:23:47;;;;;;;9.47;5.87;;;20.70;99.90;;;;;;5087888;28;20210;-84
2022/08/16 02:26:14;;;;;;;6.10;5.60;;;20.60;99.90;;;;;;5064721;28;20522;-84
2022/08/16 02:28:40;;;;;;;7.77;5.77;;;20.60;99.90;;;;;;5067376;28;20464;-84
2022/08/16 02:31:09;;;;;;;6.10;5.57;;;20.60;99.90;;;;;;5082966;28;21092;-83
2022/08/16 02:33:35;;;;;;;5.43;4.93;;;20.60;99.90;;;;;;5068520;28;20519;-84
2022/08/16 02:36:01;;;;;;;6.00;5.40;;;20.50;1.00;;;;;;5070912;28;20448;-83
2022/08/16 02:38:28;;;;;;;6.47;5.80;;;20.50;1.00;;;;;;5099744;28;20421;-83
2022/08/16 02:40:56;;;;;;;6.10;5.60;;;20.50;1.00;;;;;;5075346;28;20440;-83
2022/08/16 02:43:28;;;;;;;6.77;6.17;;;20.50;1.00;;;;;;5086884;28;20487;-83
2022/08/16 02:45:55;;;;;;;11.13;5.60;;;20.50;1.00;;;;;;5071181;28;20433;-83
2022/08/16 02:48:21;;;;;;;6.90;6.20;;;20.40;1.00;;;;;;5085723;28;20426;-85
2022/08/16 02:50:47;;;;;;;7.67;6.20;;;20.40;1.00;;;;;;5066903;28;20431;-84
2022/08/16 02:53:12;;;;;;;8.20;5.77;;;20.40;1.00;;;;;;5070176;28;20476;-85
2022/08/16 02:55:38;;;;;;;7.80;6.30;;;20.40;1.00;;;;;;5096243;28;20444;-85
2022/08/16 02:58:04;;;;;;;5.47;5.03;;;20.40;1.00;;;;;;5095860;28;20204;-85
2022/08/16 03:00:30;;;;;;;7.20;5.80;;;20.40;1.00;;;;;;5091378;28;20457;-85
2022/08/16 03:02:56;;;;;;;6.80;6.00;;;20.30;1.00;;;;;;5072563;28;20177;-85
2022/08/16 03:05:23;;;;;;;6.60;6.00;;;20.30;1.00;;;;;;5088232;28;20581;-85
2022/08/16 03:07:48;;;;;;;6.30;5.73;;;20.30;1.00;;;;;;5089095;28;20781;-86
2022/08/16 03:10:14;;;;;;;6.87;6.20;;;20.30;32.60;;;;;;5091528;28;20500;-85
2022/08/16 03:12:42;;;;;;;7.70;6.77;;;20.30;88.80;;;;;;5093659;28;20211;-84
2022/08/16 03:15:12;;;;;;;5.30;4.80;;;20.30;99.90;;;;;;5067699;28;20202;-85
2022/08/16 03:17:38;;;;;;;6.40;5.50;;;20.30;99.90;;;;;;5071907;28;20430;-85
2022/08/16 03:20:06;;;;;;;8.33;6.23;;;20.20;99.90;;;;;;5071411;28;20453;-85
2022/08/16 03:22:32;;;;;;;6.10;5.50;;;20.30;99.90;;;;;;5074415;28;20176;-84
2022/08/16 03:24:59;;;;;;;7.23;5.37;;;20.30;99.90;;;;;;5093755;28;20894;-86
2022/08/16 03:27:26;;;;;;;9.80;6.07;;;20.30;99.90;;;;;;5063574;28;20437;-84
2022/08/16 03:29:52;;;;;;;6.23;5.63;;;20.30;99.90;;;;;;5089043;28;20441;-85
2022/08/16 03:32:17;;;;;;;6.83;6.17;;;20.20;99.90;;;;;;5068641;28;20449;-84
2022/08/16 03:34:43;;;;;;;7.33;6.40;;;20.20;99.90;;;;;;5075186;28;20464;-86
2022/08/16 03:37:08;;;;;;;6.87;5.70;;;20.20;99.90;;;;;;5078698;28;20180;-85
2022/08/16 03:39:34;;;;;;;6.70;6.10;;;20.20;99.90;;;;;;5087192;28;20202;-85
2022/08/16 03:42:00;;;;;;;6.87;6.17;;;20.10;99.90;;;;;;5077062;28;20185;-85
2022/08/16 03:44:26;;;;;;;6.93;5.77;;;20.10;1.00;;;;;;5089671;28;20213;-85
2022/08/16 03:46:52;;;;;;;7.40;6.70;;;20.10;1.00;;;;;;5085595;28;20184;-85
2022/08/16 03:49:19;;;;;;;6.50;5.90;;;20.10;1.00;;;;;;5091316;28;20425;-85
2022/08/16 03:51:44;;;;;;;10.30;6.67;;;20.00;1.00;;;;;;5091965;28;20436;-85
2022/08/16 03:54:10;;;;;;;7.63;5.83;;;20.00;1.00;;;;;;5075854;28;21238;-85
2022/08/16 03:56:35;;;;;;;6.00;5.50;;;20.00;1.00;;;;;;5069823;28;20290;-84
2022/08/16 03:59:01;;;;;;;5.87;5.37;;;20.00;1.00;;;;;;5068894;28;20296;-84
2022/08/16 04:01:26;;;;;;;7.07;6.37;;;20.00;1.00;;;;;;5077289;28;20217;-84
2022/08/16 04:03:52;;;;;;;7.37;5.30;;;20.00;1.00;;;;;;5088607;28;20215;-85
2022/08/16 04:06:19;;;;;;;6.60;5.60;;;20.00;1.00;;;;;;5072364;28;20180;-85
2022/08/16 04:08:45;;;;;;;6.40;5.70;;;20.00;1.00;;;;;;5074017;28;20180;-85
2022/08/16 04:11:10;;;;;;;11.13;6.33;;;20.00;1.00;;;;;;5075888;28;20789;-84
2022/08/16 04:13:36;;;;;;;7.30;6.57;;;20.00;1.00;;;;;;5077161;28;20198;-85
2022/08/16 04:16:02;;;;;;;8.13;7.33;;;20.10;1.00;;;;;;5094305;28;20187;-85
2022/08/16 04:18:28;;;;;;;7.40;6.70;;;20.00;1.00;;;;;;5073976;28;20182;-85
2022/08/16 04:20:54;;;;;;;8.63;7.10;;;20.00;1.00;;;;;;5090315;28;20295;-85
2022/08/16 04:23:22;;;;;;;7.93;6.20;;;20.10;1.00;;;;;;5093041;28;20431;-84
2022/08/16 04:25:47;;;;;;;8.53;7.50;;;20.00;1.00;;;;;;5071267;28;20546;-84
2022/08/16 04:28:13;;;;;;;6.77;6.07;;;20.00;1.00;;;;;;5068381;28;20433;-84
2022/08/16 04:30:39;;;;;;;10.67;7.87;;;20.00;1.00;;;;;;5072616;28;20188;-85
2022/08/16 04:33:05;;;;;;;13.30;6.97;;;20.00;1.00;;;;;;5077426;28;20217;-85
2022/08/16 04:35:31;;;;;;;7.83;6.13;;;20.00;1.00;;;;;;5089087;28;20204;-85
2022/08/16 04:37:57;;;;;;;14.40;6.83;;;20.00;1.00;;;;;;5086837;28;20450;-84
2022/08/16 04:40:24;;;;;;;7.53;6.80;;;20.10;1.00;;;;;;5071606;28;20435;-84
2022/08/16 04:42:50;;;;;;;14.50;5.97;;;20.10;1.00;;;;;;5091418;28;20517;-85
2022/08/16 04:45:16;;;;;;;19.83;7.33;;;20.20;1.00;;;;;;5071215;28;20553;-84
2022/08/16 04:47:43;;;;;;;20.70;9.13;;;20.30;1.00;;;;;;5070540;28;20433;-87
2022/08/16 04:50:20;;;;;;;10.03;7.93;;;20.30;1.00;;;;;;5077178;28;20436;-83
2022/08/16 04:52:47;;;;;;;14.67;7.30;;;20.30;1.00;;;;;;5076114;28;20491;-85
2022/08/16 04:55:20;;;;;;;13.93;7.93;;;20.30;1.00;;;;;;5094891;28;20468;-84
2022/08/16 04:57:48;;;;;;;13.10;7.20;;;20.30;1.00;;;;;;5069046;28;20439;-86
2022/08/16 05:00:19;;;;;;;8.67;7.17;;;20.30;1.00;;;;;;5092110;28;20423;-87
2022/08/16 05:02:48;;;;;;;10.90;7.67;;;20.40;1.00;;;;;;5071451;28;20434;-85
2022/08/16 05:05:14;;;;;;;12.50;8.40;;;20.40;1.00;;;;;;5075578;28;20464;-83
2022/08/16 05:07:39;;;;;;;16.20;8.27;;;20.50;1.00;;;;;;5093173;28;20454;-82
2022/08/16 05:10:07;;;;;;;16.33;8.20;;;20.50;99.90;;;;;;5100791;28;20215;-85
2022/08/16 05:12:33;;;;;;;13.10;7.87;;;20.60;99.90;;;;;;5082760;28;20209;-85
2022/08/16 05:14:59;;;;;;;18.00;7.17;;;20.70;99.90;;;;;;5093030;28;20564;-84
2022/08/16 05:17:25;;;;;;;22.00;7.50;;;20.80;99.90;;;;;;5086448;28;20428;-84
2022/08/16 05:19:51;;;;;;;9.50;6.87;;;20.90;99.90;;;;;;5078387;28;20437;-85
2022/08/16 05:22:16;;;;;;;14.50;7.93;;;21.00;31.70;;;;;;5072407;28;20453;-86
2022/08/16 05:24:45;;;;;;;6.97;6.37;;;21.20;1.00;;;;;;5081747;28;20208;-86
2022/08/16 05:27:10;;;;;;;7.50;6.80;;;21.40;1.00;;;;;;5071946;28;20189;-85
2022/08/16 05:29:36;;;;;;;7.37;6.53;;;22.30;99.90;;;;;;5076897;28;20545;-87
2022/08/16 05:32:02;;;;;;;6.33;5.40;;;24.60;1.00;;;;;;5075734;28;21003;-85
2022/08/16 05:34:28;;;;;;;7.40;6.10;;;26.80;99.90;;;;;;5088203;28;20207;-86
2022/08/16 05:36:56;;;;;;;5.73;5.17;;;28.70;99.90;;;;;;5089269;28;20176;-86
2022/08/16 05:39:25;;;;;;;5.50;4.87;;;30.40;99.90;;;;;;5059720;28;20773;-86
2022/08/16 05:41:51;;;;;;;7.00;5.40;;;31.80;99.90;;;;;;5070287;28;20450;-86
2022/08/16 05:44:19;;;;;;;5.53;4.70;;;33.10;99.90;;;;;;5077382;28;20516;-86
2022/08/16 05:46:44;;;;;;;5.67;4.20;;;34.30;99.90;;;;;;5080611;28;20470;-86
2022/08/16 05:49:15;;;;;;;5.93;5.13;;;35.50;99.90;;;;;;5070328;28;20463;-86
2022/08/16 05:51:42;;;;;;;9.43;5.10;;;36.50;99.90;;;;;;5089808;28;20225;-86
2022/08/16 05:54:11;;;;;;;5.80;4.40;;;37.60;99.90;;;;;;5082870;28;20849;-86
2022/08/16 05:56:37;;;;;;;9.93;5.43;;;38.50;96.80;;;;;;5067251;28;20449;-86
2022/08/16 05:59:04;;;;;;;8.03;3.97;;;39.30;88.30;;;;;;5082275;28;20452;-86
2022/08/16 06:01:29;;;;;;;5.30;4.10;;;40.40;76.50;;;;;;5069475;28;20425;-86
2022/08/16 06:03:55;;;;;;;7.17;4.57;;;41.50;67.90;;;;;;5065002;28;20515;-86
2022/08/16 06:06:20;;;;;;;7.07;4.23;;;42.80;58.20;;;;;;5073380;28;20188;-88
2022/08/16 06:08:46;;;;;;;6.63;3.97;;;43.60;52.80;;;;;;5086823;28;20179;-83
2022/08/16 06:11:12;;;;;;;5.13;4.00;;;44.90;46.80;;;;;;5063595;28;20181;-84
2022/08/16 06:13:38;;;;;;;8.60;3.67;;;45.90;41.20;;;;;;5079657;28;20208;-84
2022/08/16 06:16:05;;;;;;;6.13;4.40;;;46.90;34.80;;;;;;5080935;28;20188;-84
2022/08/16 06:18:31;;;;;;;4.03;3.73;;;47.70;28.80;;;;;;5058556;28;20451;-82
2022/08/16 06:20:56;;;;;;;4.77;4.00;;;48.60;25.10;;;;;;5085106;28;20496;-83
2022/08/16 06:23:22;;;;;;;3.93;3.63;;;49.40;21.60;;;;;;5079427;28;20473;-84
2022/08/16 06:25:48;;;;;;;4.03;3.50;;;50.20;17.60;;;;;;5063987;28;20266;-83
2022/08/16 06:28:14;;;;;;;6.33;3.70;;;50.90;14.40;;;;;;5091363;28;20549;-83
2022/08/16 06:30:40;;;;;;;4.90;4.33;;;50.40;9.40;;;;;;5069004;28;20184;-82
2022/08/16 06:33:05;;;;;;;6.13;3.73;;;49.80;5.10;;;;;;5072411;28;20176;-82
2022/08/16 06:35:31;;;;;;;3.60;2.97;;;49.50;2.30;;;;;;5093676;28;20429;-83
2022/08/16 06:37:57;;;;;;;3.90;3.57;;;49.60;1.00;;;;;;5093530;28;20259;-82
2022/08/16 06:40:23;;;;;;;5.97;3.80;;;49.70;1.00;;;;;;5077593;28;20191;-82
2022/08/16 06:42:51;;;;;;;9.60;3.90;;;49.90;1.00;;;;;;5073997;28;20200;-83
2022/08/16 06:45:17;;;;;;;4.63;3.33;;;49.90;1.00;;;;;;5093358;28;22007;-83
2022/08/16 06:47:43;;;;;;;6.33;3.80;;;50.10;1.00;;;;;;5078407;28;20454;-84
2022/08/16 06:50:09;;;;;;;4.13;3.63;;;50.50;1.00;;;;;;5076885;28;20471;-82
2022/08/16 06:52:35;;;;;;;4.90;3.90;;;49.30;1.00;;;;;;5098277;28;20184;-81
2022/08/16 06:55:06;;;;;;;3.80;3.50;;;48.50;1.00;;;;;;5071753;28;20488;-83
2022/08/16 06:57:32;;;;;;;4.30;3.60;;;49.00;1.00;;;;;;5092392;28;20202;-83
2022/08/16 06:59:57;;;;;;;6.97;3.80;;;49.60;1.00;;;;;;5074128;28;20465;-83
2022/08/16 07:02:24;;;;;;;2.93;2.63;;;50.10;1.00;;;;;;5097815;28;20203;-82
2022/08/16 07:04:51;;;;;;;4.90;3.40;;;50.40;1.00;;;;;;5093656;28;20195;-82
2022/08/16 07:07:19;;;;;;;3.60;3.40;;;50.60;1.00;;;;;;5076430;28;20479;-83
2022/08/16 07:09:46;;;;;;;3.90;3.33;;;50.70;1.00;;;;;;5096761;28;20425;-83
2022/08/16 07:12:12;;;;;;;4.07;3.77;;;51.00;1.00;;;;;;5073117;28;20441;-83
2022/08/16 07:14:38;;;;;;;5.20;3.47;;;51.20;1.00;;;;;;5093647;28;20789;-82
2022/08/16 07:17:04;;;;;;;6.37;4.40;;;51.50;1.00;;;;;;5090512;28;20475;-83
2022/08/16 07:19:31;;;;;;;3.90;3.60;;;51.90;1.00;;;;;;5073889;28;20678;-83
2022/08/16 07:21:56;;;;;;;3.40;3.10;;;52.10;1.00;;;;;;5094540;28;20227;-82
2022/08/16 07:24:22;;;;;;;3.97;3.47;;;52.30;1.00;;;;;;5077007;28;20523;-82
2022/08/16 07:26:47;;;;;;;4.53;3.57;;;52.30;1.00;;;;;;5071248;28;20182;-83
2022/08/16 07:29:13;;;;;;;4.17;3.87;;;52.20;1.00;;;;;;5075038;28;20205;-82
2022/08/16 07:31:38;;;;;;;4.83;3.93;;;52.20;1.00;;;;;;5070910;28;20219;-82
2022/08/16 07:34:04;;;;;;;4.83;3.30;;;52.40;1.00;;;;;;5093166;28;20196;-82
2022/08/16 07:36:30;;;;;;;4.70;3.90;;;52.60;1.00;;;;;;5078187;28;20179;-82
2022/08/16 07:38:56;;;;;;;3.73;3.30;;;52.80;1.00;;;;;;5076482;28;20183;-83
2022/08/16 07:41:21;;;;;;;5.90;4.67;;;53.00;1.00;;;;;;5074359;28;20534;-84
2022/08/16 07:43:47;;;;;;;4.53;3.60;;;53.10;1.00;;;;;;5098956;28;20241;-83
2022/08/16 07:46:13;;;;;;;4.07;3.70;;;53.20;1.00;;;;;;5090175;28;20192;-84
2022/08/16 07:48:38;;;;;;;6.53;4.30;;;53.50;1.00;;;;;;5093285;28;20237;-82
2022/08/16 07:51:04;;;;;;;3.80;3.50;;;53.80;1.00;;;;;;5074683;28;20179;-82
2022/08/16 07:53:33;;;;;;;4.83;4.43;;;54.20;1.00;;;;;;5075677;28;20203;-83
2022/08/16 07:56:00;;;;;;;4.83;4.43;;;54.40;1.00;;;;;;5073618;28;20187;-85
2022/08/16 07:58:27;;;;;;;4.10;3.80;;;54.60;1.00;;;;;;5092828;28;20180;-82
2022/08/16 08:00:52;;;;;;;6.83;3.60;;;54.70;1.00;;;;;;5069012;28;20184;-82
2022/08/16 08:03:18;;;;;;;4.60;4.03;;;54.80;1.00;;;;;;5073048;28;20260;-82
2022/08/16 08:05:43;;;;;;;4.10;3.72;;;55.10;1.00;;;;;;5075041;28;20191;-82
2022/08/16 08:08:09;;;;;;;4.80;3.80;;;55.30;1.00;;;;;;5081802;28;20224;-81
2022/08/16 08:10:37;;;;;;;6.28;3.75;;;55.20;1.00;;;;;;5074037;28;20187;-83
2022/08/16 08:13:09;;;;;;;4.50;3.15;;;55.40;1.00;;;;;;5071459;28;20187;-83
2022/08/16 08:15:35;;;;;;;4.00;3.63;;;55.80;1.00;;;;;;5087878;28;20599;-83
2022/08/16 08:18:03;;;;;;;6.32;3.78;;;55.90;1.00;;;;;;5095489;28;20179;-82
2022/08/16 08:20:28;;;;;;;4.00;3.40;;;56.00;1.00;;;;;;5077515;28;20184;-83
2022/08/16 08:22:58;;;;;;;4.25;3.90;;;56.20;1.00;;;;;;5076368;28;20203;-83
2022/08/16 08:25:24;;;;;;;6.13;4.05;;;56.10;1.00;;;;;;5077082;28;20219;-85
2022/08/16 08:27:50;;;;;;;4.60;4.30;;;56.10;1.00;;;;;;5098818;28;20258;-82
2022/08/16 08:30:16;;;;;;;4.65;3.65;;;56.00;1.00;;;;;;5078763;28;21798;-83
2022/08/16 08:32:54;;;;;;;5.38;4.20;;;55.90;1.00;;;;;;5071795;28;20182;-82
2022/08/16 08:35:20;;;;;;;2.78;2.35;;;55.90;1.00;;;;;;5072914;28;20207;-82
2022/08/16 08:37:45;;;;;;;5.53;4.13;;;55.90;1.00;;;;;;5074773;28;20192;-82
2022/08/16 08:40:11;;;;;;;4.57;4.18;;;56.00;1.00;;;;;;5078337;28;20172;-83
2022/08/16 08:42:37;;;;;;;7.40;3.92;;;56.30;1.00;;;;;;5078371;28;20210;-82
2022/08/16 08:45:04;;;;;;;6.63;3.97;;;56.40;1.00;;;;;;5078008;28;20203;-82
2022/08/16 08:47:30;;;;;;;3.40;3.10;;;56.60;1.00;;;;;;5076710;28;20224;-82
2022/08/16 08:49:57;;;;;;;8.57;4.18;;;56.70;1.00;;;;;;5076649;28;20176;-83
2022/08/16 08:52:23;;;;;;;4.50;3.90;;;56.80;1.00;;;;;;5066705;28;20221;-82
2022/08/16 08:54:49;;;;;;;4.20;3.80;;;57.00;1.00;;;;;;5079602;28;20639;-83
2022/08/16 08:57:17;;;;;;;4.63;4.22;;;57.00;1.00;;;;;;5093020;28;20236;-82
2022/08/16 08:59:44;;;;;;;5.90;3.00;;;56.60;1.00;;;;;;5074277;28;20180;-83
2022/08/16 09:02:11;;;;;;;3.47;3.17;;;56.20;1.00;;;;;;5075138;28;20286;-82
2022/08/16 09:04:36;;;;;;;6.90;3.83;;;55.90;1.00;;;;;;5069380;28;20195;-83
2022/08/16 09:07:12;;;;;;;4.07;3.30;;;55.70;1.00;;;;;;5068226;28;20617;-83
2022/08/16 09:09:38;;;;;;;3.75;3.03;;;55.70;1.00;;;;;;5065978;28;20669;-83
2022/08/16 09:12:04;;;;;;;3.80;3.30;;;55.30;1.00;;;;;;5066938;28;20262;-83
2022/08/16 09:14:31;;;;;;;8.30;4.20;;;55.10;1.00;;;;;;5086603;28;20203;-83
2022/08/16 09:16:56;;;;;;;3.47;3.13;;;55.00;1.00;;;;;;5083755;28;20227;-82
2022/08/16 09:19:25;;;;;;;4.97;3.90;;;54.90;1.00;;;;;;5084932;28;20188;-82
2022/08/16 09:21:50;;;;;;;7.00;3.40;;;54.60;1.00;;;;;;5091431;28;20183;-82
2022/08/16 09:24:17;;;;;;;6.50;4.37;;;54.20;1.00;;;;;;5083798;28;20207;-82
2022/08/16 09:26:43;;;;;;;4.60;4.00;;;53.80;1.00;;;;;;5089286;28;20734;-83
2022/08/16 09:29:09;;;;;;;5.37;3.30;;;53.70;1.00;;;;;;5080865;28;20179;-82
2022/08/16 09:31:34;;;;;;;4.40;4.00;;;53.50;1.00;;;;;;5070066;28;20187;-82
2022/08/16 09:34:03;;;;;;;7.67;4.30;;;52.70;1.00;;;;;;5091524;28;20294;-82
2022/08/16 09:36:28;;;;;;;4.70;4.30;;;52.50;1.00;;;;;;5070126;28;20184;-83
2022/08/16 09:38:56;;;;;;;4.30;3.90;;;52.90;1.00;;;;;;5088844;28;20525;-82
2022/08/16 09:41:21;;;;;;;6.20;3.93;;;52.50;1.00;;;;;;5066710;28;20656;-82
2022/08/16 09:43:47;;;;;;;7.57;4.20;;;52.40;1.00;;;;;;5071019;28;20531;-82
2022/08/16 09:46:13;;;;;;;5.40;3.43;;;52.20;1.00;;;;;;5085993;28;20179;-82
2022/08/16 09:48:41;;;;;;;7.67;5.07;;;52.20;1.00;;;;;;5084995;28;20179;-82
2022/08/16 09:51:08;;;;;;;7.80;3.63;;;52.40;1.00;;;;;;5091156;28;20437;-82
2022/08/16 09:53:36;;;;;;;5.80;4.43;;;52.90;1.00;;;;;;5072234;28;20230;-82
2022/08/16 09:56:06;;;;;;;8.87;3.27;;;53.10;1.00;;;;;;5071869;28;20194;-82
2022/08/16 09:58:32;;;;;;;5.17;3.77;;;53.10;1.00;;;;;;5082202;28;20179;-82
2022/08/16 10:01:19;;;;;;;7.37;3.67;;;53.00;1.00;;;;;;5066492;28;20184;-82
2022/08/16 10:03:48;;;;;;;4.07;2.77;;;52.50;1.00;;;;;;5066823;28;20220;-82
2022/08/16 10:06:23;;;;;;;;;;;;;;;;;;;;;
2022/08/16 10:08:50;;;;;;;3.93;3.10;;;52.80;1.00;;;;;;5088459;28;20171;-82
2022/08/16 10:14:00;;;;;;;5.97;3.73;;;52.90;1.00;;;;;;5082012;28;20749;-82
2022/08/16 10:16:26;;;;;;;4.37;3.20;;;52.80;1.00;;;;;;5088581;28;20187;-82
2022/08/16 10:18:52;;;;;;;9.10;4.17;;;52.70;1.00;;;;;;5079088;28;20263;-83
2022/08/16 10:21:17;;;;;;;4.30;3.90;;;52.50;1.00;;;;;;5079963;28;20183;-83
2022/08/16 10:23:44;;;;;;;5.00;3.17;;;51.80;1.00;;;;;;5070857;28;20215;-83
2022/08/16 10:26:10;;;;;;;6.40;3.10;;;51.30;1.00;;;;;;5058136;28;20652;-83
2022/08/16 10:28:36;;;;;;;4.80;3.73;;;51.30;1.00;;;;;;5077549;28;20437;-83
2022/08/16 10:31:03;;;;;;;4.37;3.97;;;51.00;1.00;;;;;;5089940;28;20452;-83
2022/08/16 10:33:30;;;;;;;8.77;3.73;;;51.00;1.00;;;;;;5070552;28;20991;-83
2022/08/16 10:35:56;;;;;;;5.77;3.20;;;51.00;1.00;;;;;;5070627;28;20534;-83
2022/08/16 10:38:21;;;;;;;7.63;3.50;;;51.30;1.00;;;;;;5061541;28;20496;-83
2022/08/16 10:40:47;;;;;;;6.13;2.83;;;51.50;1.00;;;;;;5088426;28;20215;-83
2022/08/16 10:43:13;;;;;;;4.57;2.60;;;51.70;1.00;;;;;;5081154;28;20231;-83
2022/08/16 10:45:40;;;;;;;3.03;2.63;;;51.70;1.00;;;;;;5064637;28;20187;-84
2022/08/16 10:48:09;;;;;;;4.70;2.60;;;51.70;1.00;;;;;;5059429;28;20202;-83
2022/08/16 10:50:36;;;;;;;7.20;2.87;;;51.20;1.00;;;;;;5061285;28;20652;-83
2022/08/16 10:53:05;;;;;;;7.77;2.73;;;50.60;1.00;;;;;;5085959;28;20183;-83
2022/08/16 10:55:35;;;;;;;5.60;2.90;;;50.40;1.00;;;;;;5068635;28;20442;-84
2022/08/16 10:58:04;;;;;;;4.80;2.90;;;50.30;1.00;;;;;;5079808;28;20456;-83
2022/08/16 11:00:33;;;;;;;2.90;2.70;;;50.30;1.00;;;;;;5065187;28;20442;-83
2022/08/16 11:03:02;;;;;;;4.10;2.93;;;50.40;1.00;;;;;;5088815;28;20904;-83
2022/08/16 11:05:30;;;;;;;2.80;2.60;;;50.60;1.00;;;;;;5066738;28;20972;-83
2022/08/16 11:07:56;;;;;;;6.90;3.30;;;50.80;1.00;;;;;;5086424;28;20180;-83
2022/08/16 11:10:26;;;;;;;3.73;3.10;;;50.60;1.00;;;;;;5069187;28;20604;-83
2022/08/16 11:12:51;;;;;;;4.40;3.30;;;50.30;1.00;;;;;;5084096;28;20179;-82
2022/08/16 11:15:18;;;;;;;3.30;2.47;;;50.20;1.00;;;;;;5067672;28;20966;-83
2022/08/16 11:17:43;;;;;;;6.27;2.40;;;50.30;1.00;;;;;;5064597;28;20195;-83
2022/08/16 11:20:12;;;;;;;8.03;2.80;;;50.60;1.00;;;;;;5078659;28;20180;-83
2022/08/16 11:22:38;;;;;;;3.40;2.50;;;50.40;1.00;;;;;;5066046;28;20668;-83
2022/08/16 11:25:04;;;;;;;3.53;2.77;;;49.90;1.00;;;;;;5079764;28;20467;-84
2022/08/16 11:27:30;;;;;;;4.43;2.43;;;49.80;1.00;;;;;;5062596;28;20433;-82
2022/08/16 11:29:56;;;;;;;2.83;2.53;;;49.10;1.00;;;;;;5077357;28;20187;-82
2022/08/16 11:32:24;;;;;;;6.00;3.13;;;47.70;1.00;;;;;;5062777;28;20184;-82
2022/08/16 11:34:49;;;;;;;4.93;3.30;;;46.30;1.00;;;;;;5057174;28;20204;-82
2022/08/16 11:37:15;;;;;;;3.40;3.10;;;45.70;1.00;;;;;;5060206;28;20496;-82
2022/08/16 11:39:41;;;;;;;4.90;3.37;;;45.30;1.00;;;;;;5059962;28;20181;-81
2022/08/16 11:42:06;;;;;;;5.13;3.20;;;45.20;1.00;;;;;;5057282;28;20296;-82
2022/08/16 11:44:32;;;;;;;3.50;3.10;;;45.50;1.00;;;;;;5066419;28;20223;-82
2022/08/16 11:46:58;;;;;;;7.33;3.63;;;46.00;1.00;;;;;;5078005;28;20216;-82
2022/08/16 11:49:24;;;;;;;6.37;2.90;;;45.70;1.00;;;;;;5060492;28;20546;-82
2022/08/16 11:51:50;;;;;;;4.97;3.73;;;44.80;1.00;;;;;;5061703;28;20430;-82
2022/08/16 11:54:16;;;;;;;6.00;3.67;;;43.90;1.00;;;;;;5059617;28;20213;-82
2022/08/16 11:56:42;;;;;;;6.27;3.60;;;42.80;1.00;;;;;;5058887;28;20177;-80
2022/08/16 11:59:08;;;;;;;3.80;3.00;;;41.60;1.00;;;;;;5061127;28;20426;-81
2022/08/16 12:01:35;;;;;;;4.33;3.73;;;40.50;1.00;;;;;;5063246;28;20176;-81
2022/08/16 12:04:00;;;;;;;7.70;4.13;;;39.50;1.00;;;;;;5063923;28;20578;-82
2022/08/16 12:06:26;;;;;;;5.90;3.60;;;38.70;1.00;;;;;;5058484;28;20490;-82
2022/08/16 12:08:56;;;;;;;9.00;4.20;;;38.00;1.00;;;;;;5067939;28;20180;-82
2022/08/16 12:11:23;;;;;;;6.77;3.97;;;37.50;1.00;;;;;;5059044;28;20227;-82
2022/08/16 12:13:50;;;;;;;5.87;3.70;;;37.20;1.00;;;;;;5059816;28;20451;-82
2022/08/16 12:16:18;;;;;;;7.33;3.33;;;37.00;1.00;;;;;;5078149;28;20807;-82
2022/08/16 12:18:43;;;;;;;4.80;3.30;;;36.90;1.00;;;;;;5064689;28;20426;-82
2022/08/16 12:21:09;;;;;;;5.27;3.60;;;37.00;1.00;;;;;;5058210;28;20775;-80
2022/08/16 12:23:35;;;;;;;9.63;3.90;;;36.90;1.00;;;;;;5086196;28;20235;-81
2022/08/16 12:26:00;;;;;;;7.47;3.50;;;37.10;1.00;;;;;;5083080;28;20294;-80
2022/08/16 12:28:26;;;;;;;7.23;3.80;;;37.50;1.00;;;;;;5085480;28;20272;-82
2022/08/16 12:30:52;;;;;;;9.30;3.73;;;38.50;1.00;;;;;;5074287;28;20184;-82
2022/08/16 12:33:17;;;;;;;4.97;3.00;;;39.50;1.00;;;;;;5065984;28;20680;-82
2022/08/16 12:35:46;;;;;;;4.43;3.20;;;40.20;1.00;;;;;;5073981;28;20552;-81
2022/08/16 12:38:13;;;;;;;3.93;3.20;;;41.30;1.00;;;;;;5078328;28;20184;-81
2022/08/16 12:40:42;;;;;;;5.10;3.00;;;42.10;1.00;;;;;;5063939;28;20460;-82
2022/08/16 12:43:10;;;;;;;3.67;3.17;;;42.80;1.00;;;;;;5078275;28;20542;-82
2022/08/16 12:45:39;;;;;;;5.70;3.57;;;42.70;1.00;;;;;;5060242;28;20438;-82
2022/08/16 12:50:51;;;;;;;9.43;3.20;;;40.60;1.00;;;;;;5075337;28;20511;-82
2022/08/16 12:53:19;;;;;;;5.30;3.40;;;39.90;1.00;;;;;;5084775;28;20437;-82
2022/08/16 12:55:45;;;;;;;7.80;3.23;;;40.30;1.00;;;;;;5093372;22;20911;-83
2022/08/16 12:58:12;;;;;;;3.70;2.97;;;40.70;1.00;;;;;;5069146;28;20420;-84